sensor_id;sensor_type;location;lat;lon;timestamp;P1;durP1;ratioP1;P2;durP2;ratioP2
5355;SDS011;70449;52.486;13.386;2023-07-20T00:02:11;5.90;;;5.30;;
5355;SDS011;70449;52.486;13.386;2023-07-20T00:04:39;8.47;;;4.93;;
5355;SDS011;70449;52.486;13.386;2023-07-20T00:07:06;6.50;;;5.60;;
5355;SDS011;70449;52.486;13.386;2023-07-20T00:09:33;7.90;;;5.10;;
5355;SDS011;70449;52.486;13.386;2023-07-20T00:12:00;5.90;;;4.80;;
5355;SDS011;70449;52.486;13.386;2023-07-20T00:14:28;5.73;;;5.13;;
5355;SDS011;70449;52.486;13.386;2023-07-20T00:16:56;6.20;;;5.23;;
5355;SDS011;70449;52.486;13.386;2023-07-20T00:19:24;9.43;;;6.10;;
5355;SDS011;70449;52.486;13.386;2023-07-20T00:21:53;6.57;;;5.13;;
5355;SDS011;70449;52.486;13.386;2023-07-20T00:24:23;5.87;;;5.37;;
5355;SDS011;70449;52.486;13.386;2023-07-20T00:26:51;5.50;;;5.00;;
5355;SDS011;70449;52.486;13.386;2023-07-20T00:29:18;7.77;;;5.30;;
5355;SDS011;70449;52.486;13.386;2023-07-20T00:31:45;9.93;;;6.00;;
5355;SDS011;70449;52.486;13.386;2023-07-20T00:34:16;7.83;;;6.00;;
5355;SDS011;70449;52.486;13.386;2023-07-20T00:36:44;10.70;;;5.47;;
5355;SDS011;70449;52.486;13.386;2023-07-20T00:39:11;5.87;;;5.37;;
5355;SDS011;70449;52.486;13.386;2023-07-20T00:41:39;7.80;;;5.97;;
5355;SDS011;70449;52.486;13.386;2023-07-20T00:44:06;6.90;;;5.67;;
5355;SDS011;70449;52.486;13.386;2023-07-20T00:46:33;12.67;;;6.20;;
5355;SDS011;70449;52.486;13.386;2023-07-20T00:49:00;8.73;;;6.10;;
5355;SDS011;70449;52.486;13.386;2023-07-20T00:51:29;8.33;;;6.57;;
5355;SDS011;70449;52.486;13.386;2023-07-20T00:53:57;9.80;;;6.00;;
5355;SDS011;70449;52.486;13.386;2023-07-20T00:56:24;7.23;;;6.53;;
5355;SDS011;70449;52.486;13.386;2023-07-20T00:58:51;9.20;;;6.90;;
5355;SDS011;70449;52.486;13.386;2023-07-20T01:01:19;10.03;;;6.47;;
5355;SDS011;70449;52.486;13.386;2023-07-20T01:03:46;8.13;;;6.63;;
5355;SDS011;70449;52.486;13.386;2023-07-20T01:06:15;8.50;;;7.53;;
5355;SDS011;70449;52.486;13.386;2023-07-20T01:09:00;13.43;;;6.70;;
5355;SDS011;70449;52.486;13.386;2023-07-20T01:11:38;9.00;;;6.70;;
5355;SDS011;70449;52.486;13.386;2023-07-20T01:14:15;14.03;;;7.10;;
5355;SDS011;70449;52.486;13.386;2023-07-20T01:16:45;8.00;;;7.17;;
5355;SDS011;70449;52.486;13.386;2023-07-20T01:19:14;10.83;;;7.47;;
5355;SDS011;70449;52.486;13.386;2023-07-20T01:21:44;10.53;;;7.10;;
5355;SDS011;70449;52.486;13.386;2023-07-20T01:27:55;7.33;;;6.63;;
5355;SDS011;70449;52.486;13.386;2023-07-20T01:30:55;11.80;;;7.43;;
5355;SDS011;70449;52.486;13.386;2023-07-20T01:33:30;9.17;;;7.20;;
5355;SDS011;70449;52.486;13.386;2023-07-20T01:36:00;11.23;;;6.50;;
5355;SDS011;70449;52.486;13.386;2023-07-20T01:38:29;8.70;;;6.37;;
5355;SDS011;70449;52.486;13.386;2023-07-20T01:40:57;11.53;;;8.17;;
5355;SDS011;70449;52.486;13.386;2023-07-20T01:43:25;7.50;;;6.40;;
5355;SDS011;70449;52.486;13.386;2023-07-20T01:45:52;8.83;;;6.27;;
5355;SDS011;70449;52.486;13.386;2023-07-20T01:48:19;12.83;;;6.43;;
5355;SDS011;70449;52.486;13.386;2023-07-20T01:50:49;7.53;;;6.83;;
5355;SDS011;70449;52.486;13.386;2023-07-20T01:53:17;8.03;;;6.30;;
5355;SDS011;70449;52.486;13.386;2023-07-20T01:55:44;7.70;;;6.90;;
5355;SDS011;70449;52.486;13.386;2023-07-20T01:58:12;7.60;;;6.90;;
5355;SDS011;70449;52.486;13.386;2023-07-20T02:00:39;7.97;;;7.00;;
5355;SDS011;70449;52.486;13.386;2023-07-20T02:03:06;7.40;;;6.63;;
5355;SDS011;70449;52.486;13.386;2023-07-20T02:05:33;10.63;;;7.20;;
5355;SDS011;70449;52.486;13.386;2023-07-20T02:08:03;14.13;;;6.53;;
5355;SDS011;70449;52.486;13.386;2023-07-20T02:10:31;8.00;;;7.20;;
5355;SDS011;70449;52.486;13.386;2023-07-20T02:12:58;9.33;;;7.37;;
5355;SDS011;70449;52.486;13.386;2023-07-20T02:15:27;8.90;;;6.90;;
5355;SDS011;70449;52.486;13.386;2023-07-20T02:17:54;8.30;;;7.13;;
5355;SDS011;70449;52.486;13.386;2023-07-20T02:20:22;7.50;;;6.53;;
5355;SDS011;70449;52.486;13.386;2023-07-20T02:22:49;9.37;;;7.07;;
5355;SDS011;70449;52.486;13.386;2023-07-20T02:25:17;8.73;;;7.40;;
5355;SDS011;70449;52.486;13.386;2023-07-20T02:27:46;9.10;;;7.57;;
5355;SDS011;70449;52.486;13.386;2023-07-20T02:30:14;13.40;;;7.63;;
5355;SDS011;70449;52.486;13.386;2023-07-20T02:32:41;11.33;;;7.53;;
5355;SDS011;70449;52.486;13.386;2023-07-20T02:35:10;16.07;;;8.43;;
5355;SDS011;70449;52.486;13.386;2023-07-20T02:37:37;15.43;;;9.00;;
5355;SDS011;70449;52.486;13.386;2023-07-20T02:40:05;11.37;;;10.20;;
5355;SDS011;70449;52.486;13.386;2023-07-20T02:42:37;16.33;;;10.40;;
5355;SDS011;70449;52.486;13.386;2023-07-20T02:45:05;20.50;;;11.30;;
5355;SDS011;70449;52.486;13.386;2023-07-20T02:47:33;11.87;;;10.67;;
5355;SDS011;70449;52.486;13.386;2023-07-20T02:50:01;12.40;;;10.67;;
5355;SDS011;70449;52.486;13.386;2023-07-20T02:52:29;10.60;;;8.80;;
5355;SDS011;70449;52.486;13.386;2023-07-20T02:54:56;12.70;;;9.97;;
5355;SDS011;70449;52.486;13.386;2023-07-20T02:57:24;11.30;;;9.10;;
5355;SDS011;70449;52.486;13.386;2023-07-20T02:59:53;20.83;;;10.27;;
5355;SDS011;70449;52.486;13.386;2023-07-20T03:02:20;11.37;;;9.73;;
5355;SDS011;70449;52.486;13.386;2023-07-20T03:04:47;14.10;;;11.17;;
5355;SDS011;70449;52.486;13.386;2023-07-20T03:07:14;16.90;;;13.57;;
5355;SDS011;70449;52.486;13.386;2023-07-20T03:09:42;14.20;;;12.27;;
5355;SDS011;70449;52.486;13.386;2023-07-20T03:12:10;19.43;;;14.63;;
5355;SDS011;70449;52.486;13.386;2023-07-20T03:14:37;17.03;;;13.07;;
5355;SDS011;70449;52.486;13.386;2023-07-20T03:17:05;15.20;;;13.37;;
5355;SDS011;70449;52.486;13.386;2023-07-20T03:19:33;22.70;;;14.20;;
5355;SDS011;70449;52.486;13.386;2023-07-20T03:22:00;14.60;;;12.63;;
5355;SDS011;70449;52.486;13.386;2023-07-20T03:24:28;19.40;;;14.27;;
5355;SDS011;70449;52.486;13.386;2023-07-20T03:26:55;17.87;;;12.90;;
5355;SDS011;70449;52.486;13.386;2023-07-20T03:29:22;18.63;;;14.10;;
5355;SDS011;70449;52.486;13.386;2023-07-20T03:31:49;19.33;;;13.00;;
5355;SDS011;70449;52.486;13.386;2023-07-20T03:34:18;18.67;;;13.43;;
5355;SDS011;70449;52.486;13.386;2023-07-20T03:36:45;17.93;;;12.63;;
5355;SDS011;70449;52.486;13.386;2023-07-20T03:39:12;16.77;;;12.50;;
5355;SDS011;70449;52.486;13.386;2023-07-20T03:41:39;14.53;;;10.83;;
5355;SDS011;70449;52.486;13.386;2023-07-20T03:44:06;15.17;;;11.17;;
5355;SDS011;70449;52.486;13.386;2023-07-20T03:46:33;19.23;;;12.20;;
5355;SDS011;70449;52.486;13.386;2023-07-20T03:49:00;18.90;;;11.03;;
5355;SDS011;70449;52.486;13.386;2023-07-20T03:51:29;22.50;;;14.00;;
5355;SDS011;70449;52.486;13.386;2023-07-20T03:53:57;17.50;;;14.60;;
5355;SDS011;70449;52.486;13.386;2023-07-20T03:56:24;20.23;;;15.50;;
5355;SDS011;70449;52.486;13.386;2023-07-20T03:58:51;23.00;;;16.67;;
5355;SDS011;70449;52.486;13.386;2023-07-20T04:01:19;22.73;;;16.07;;
5355;SDS011;70449;52.486;13.386;2023-07-20T04:03:48;28.50;;;18.70;;
5355;SDS011;70449;52.486;13.386;2023-07-20T04:06:15;24.13;;;15.97;;
5355;SDS011;70449;52.486;13.386;2023-07-20T04:08:46;21.33;;;16.83;;
5355;SDS011;70449;52.486;13.386;2023-07-20T04:11:15;20.57;;;16.20;;
5355;SDS011;70449;52.486;13.386;2023-07-20T04:13:42;23.13;;;15.67;;
5355;SDS011;70449;52.486;13.386;2023-07-20T04:16:10;24.70;;;13.83;;
5355;SDS011;70449;52.486;13.386;2023-07-20T04:18:37;15.57;;;13.07;;
5355;SDS011;70449;52.486;13.386;2023-07-20T04:21:04;18.90;;;11.93;;
5355;SDS011;70449;52.486;13.386;2023-07-20T04:23:34;16.70;;;12.10;;
5355;SDS011;70449;52.486;13.386;2023-07-20T04:26:03;17.40;;;10.87;;
5355;SDS011;70449;52.486;13.386;2023-07-20T04:28:31;18.17;;;12.40;;
5355;SDS011;70449;52.486;13.386;2023-07-20T04:31:09;15.20;;;11.63;;
5355;SDS011;70449;52.486;13.386;2023-07-20T04:33:36;20.40;;;12.27;;
5355;SDS011;70449;52.486;13.386;2023-07-20T04:36:04;21.00;;;14.10;;
5355;SDS011;70449;52.486;13.386;2023-07-20T04:38:32;18.80;;;13.77;;
5355;SDS011;70449;52.486;13.386;2023-07-20T04:41:00;24.87;;;14.17;;
5355;SDS011;70449;52.486;13.386;2023-07-20T04:43:29;15.93;;;13.30;;
5355;SDS011;70449;52.486;13.386;2023-07-20T04:45:56;17.10;;;13.00;;
5355;SDS011;70449;52.486;13.386;2023-07-20T04:48:23;15.00;;;10.13;;
5355;SDS011;70449;52.486;13.386;2023-07-20T04:50:50;17.67;;;10.93;;
5355;SDS011;70449;52.486;13.386;2023-07-20T04:53:18;12.30;;;10.03;;
5355;SDS011;70449;52.486;13.386;2023-07-20T04:55:48;12.73;;;10.03;;
5355;SDS011;70449;52.486;13.386;2023-07-20T04:58:19;19.90;;;9.73;;
5355;SDS011;70449;52.486;13.386;2023-07-20T05:00:49;20.47;;;10.83;;
5355;SDS011;70449;52.486;13.386;2023-07-20T05:03:17;13.57;;;9.50;;
5355;SDS011;70449;52.486;13.386;2023-07-20T05:05:48;12.53;;;8.50;;
5355;SDS011;70449;52.486;13.386;2023-07-20T05:08:16;18.20;;;8.77;;
5355;SDS011;70449;52.486;13.386;2023-07-20T05:10:43;9.63;;;7.40;;
5355;SDS011;70449;52.486;13.386;2023-07-20T05:13:11;9.20;;;7.40;;
5355;SDS011;70449;52.486;13.386;2023-07-20T05:15:39;9.40;;;7.37;;
5355;SDS011;70449;52.486;13.386;2023-07-20T05:18:08;10.50;;;7.83;;
5355;SDS011;70449;52.486;13.386;2023-07-20T05:20:38;7.17;;;6.33;;
5355;SDS011;70449;52.486;13.386;2023-07-20T05:23:05;31.23;;;7.70;;
5355;SDS011;70449;52.486;13.386;2023-07-20T05:25:34;9.80;;;6.70;;
5355;SDS011;70449;52.486;13.386;2023-07-20T05:28:01;9.20;;;7.53;;
5355;SDS011;70449;52.486;13.386;2023-07-20T05:30:29;9.83;;;6.50;;
5355;SDS011;70449;52.486;13.386;2023-07-20T05:32:56;8.30;;;6.20;;
5355;SDS011;70449;52.486;13.386;2023-07-20T05:35:25;6.43;;;5.83;;
5355;SDS011;70449;52.486;13.386;2023-07-20T05:37:53;9.77;;;6.67;;
5355;SDS011;70449;52.486;13.386;2023-07-20T05:40:20;9.83;;;7.40;;
5355;SDS011;70449;52.486;13.386;2023-07-20T05:42:47;7.67;;;5.53;;
5355;SDS011;70449;52.486;13.386;2023-07-20T05:45:17;6.43;;;5.83;;
5355;SDS011;70449;52.486;13.386;2023-07-20T05:47:46;6.90;;;6.20;;
5355;SDS011;70449;52.486;13.386;2023-07-20T05:50:13;8.73;;;5.77;;
5355;SDS011;70449;52.486;13.386;2023-07-20T05:52:42;9.37;;;6.67;;
5355;SDS011;70449;52.486;13.386;2023-07-20T05:55:09;16.90;;;6.60;;
5355;SDS011;70449;52.486;13.386;2023-07-20T05:57:37;9.40;;;7.40;;
5355;SDS011;70449;52.486;13.386;2023-07-20T06:00:07;8.97;;;8.07;;
5355;SDS011;70449;52.486;13.386;2023-07-20T06:02:35;20.07;;;7.93;;
5355;SDS011;70449;52.486;13.386;2023-07-20T06:05:03;16.20;;;8.37;;
5355;SDS011;70449;52.486;13.386;2023-07-20T06:07:34;11.80;;;7.83;;
5355;SDS011;70449;52.486;13.386;2023-07-20T06:10:06;9.17;;;7.53;;
5355;SDS011;70449;52.486;13.386;2023-07-20T06:12:35;10.50;;;7.83;;
5355;SDS011;70449;52.486;13.386;2023-07-20T06:15:03;11.53;;;9.23;;
5355;SDS011;70449;52.486;13.386;2023-07-20T06:17:31;11.67;;;9.90;;
5355;SDS011;70449;52.486;13.386;2023-07-20T06:19:59;16.50;;;10.00;;
5355;SDS011;70449;52.486;13.386;2023-07-20T06:22:26;23.50;;;10.00;;
5355;SDS011;70449;52.486;13.386;2023-07-20T06:24:54;13.13;;;8.63;;
5355;SDS011;70449;52.486;13.386;2023-07-20T06:27:22;8.47;;;7.10;;
5355;SDS011;70449;52.486;13.386;2023-07-20T06:29:52;8.80;;;6.23;;
5355;SDS011;70449;52.486;13.386;2023-07-20T06:32:20;15.57;;;6.20;;
5355;SDS011;70449;52.486;13.386;2023-07-20T06:34:47;7.37;;;4.80;;
5355;SDS011;70449;52.486;13.386;2023-07-20T06:37:17;5.77;;;5.00;;
5355;SDS011;70449;52.486;13.386;2023-07-20T06:39:47;7.37;;;4.77;;
5355;SDS011;70449;52.486;13.386;2023-07-20T06:42:14;7.03;;;4.63;;
5355;SDS011;70449;52.486;13.386;2023-07-20T06:44:46;4.40;;;4.10;;
5355;SDS011;70449;52.486;13.386;2023-07-20T06:47:19;12.73;;;4.60;;
5355;SDS011;70449;52.486;13.386;2023-07-20T06:49:50;4.93;;;4.53;;
5355;SDS011;70449;52.486;13.386;2023-07-20T06:52:17;6.70;;;4.43;;
5355;SDS011;70449;52.486;13.386;2023-07-20T06:54:45;5.37;;;4.20;;
5355;SDS011;70449;52.486;13.386;2023-07-20T06:57:12;5.60;;;3.73;;
5355;SDS011;70449;52.486;13.386;2023-07-20T06:59:42;5.53;;;4.40;;
5355;SDS011;70449;52.486;13.386;2023-07-20T07:02:10;10.23;;;4.07;;
5355;SDS011;70449;52.486;13.386;2023-07-20T07:04:39;3.80;;;3.50;;
5355;SDS011;70449;52.486;13.386;2023-07-20T07:07:07;4.20;;;3.80;;
5355;SDS011;70449;52.486;13.386;2023-07-20T07:09:35;6.67;;;3.30;;
5355;SDS011;70449;52.486;13.386;2023-07-20T07:12:02;3.00;;;2.80;;
5355;SDS011;70449;52.486;13.386;2023-07-20T07:14:31;3.67;;;3.00;;
5355;SDS011;70449;52.486;13.386;2023-07-20T07:16:59;3.20;;;2.90;;
5355;SDS011;70449;52.486;13.386;2023-07-20T07:19:29;6.00;;;2.90;;
5355;SDS011;70449;52.486;13.386;2023-07-20T07:21:56;6.20;;;2.90;;
5355;SDS011;70449;52.486;13.386;2023-07-20T07:24:24;2.50;;;2.30;;
5355;SDS011;70449;52.486;13.386;2023-07-20T07:26:53;9.60;;;2.67;;
5355;SDS011;70449;52.486;13.386;2023-07-20T07:29:20;2.47;;;2.27;;
5355;SDS011;70449;52.486;13.386;2023-07-20T07:31:47;4.53;;;2.20;;
5355;SDS011;70449;52.486;13.386;2023-07-20T07:34:14;5.07;;;2.23;;
5355;SDS011;70449;52.486;13.386;2023-07-20T07:36:43;2.90;;;1.97;;
5355;SDS011;70449;52.486;13.386;2023-07-20T07:39:12;4.30;;;2.33;;
5355;SDS011;70449;52.486;13.386;2023-07-20T07:41:39;6.63;;;2.77;;
5355;SDS011;70449;52.486;13.386;2023-07-20T07:44:06;3.60;;;2.70;;
5355;SDS011;70449;52.486;13.386;2023-07-20T07:46:35;9.63;;;2.50;;
5355;SDS011;70449;52.486;13.386;2023-07-20T07:49:06;3.03;;;2.07;;
5355;SDS011;70449;52.486;13.386;2023-07-20T07:51:38;1.83;;;1.67;;
5355;SDS011;70449;52.486;13.386;2023-07-20T07:54:07;2.30;;;1.43;;
5355;SDS011;70449;52.486;13.386;2023-07-20T07:56:34;5.00;;;2.27;;
5355;SDS011;70449;52.486;13.386;2023-07-20T07:59:01;1.47;;;1.30;;
5355;SDS011;70449;52.486;13.386;2023-07-20T08:01:29;1.67;;;1.57;;
5355;SDS011;70449;52.486;13.386;2023-07-20T08:03:58;2.60;;;1.60;;
5355;SDS011;70449;52.486;13.386;2023-07-20T08:06:26;1.60;;;1.50;;
5355;SDS011;70449;52.486;13.386;2023-07-20T08:08:53;1.70;;;1.60;;
5355;SDS011;70449;52.486;13.386;2023-07-20T08:11:25;2.93;;;1.60;;
5355;SDS011;70449;52.486;13.386;2023-07-20T08:13:53;1.77;;;1.60;;
5355;SDS011;70449;52.486;13.386;2023-07-20T08:16:23;2.50;;;1.67;;
5355;SDS011;70449;52.486;13.386;2023-07-20T08:18:50;3.27;;;2.00;;
5355;SDS011;70449;52.486;13.386;2023-07-20T08:21:17;4.87;;;1.93;;
5355;SDS011;70449;52.486;13.386;2023-07-20T08:23:45;4.70;;;1.90;;
5355;SDS011;70449;52.486;13.386;2023-07-20T08:26:13;1.60;;;1.50;;
5355;SDS011;70449;52.486;13.386;2023-07-20T08:28:42;2.30;;;1.57;;
5355;SDS011;70449;52.486;13.386;2023-07-20T08:31:11;4.93;;;1.33;;
5355;SDS011;70449;52.486;13.386;2023-07-20T08:33:38;1.17;;;1.07;;
5355;SDS011;70449;52.486;13.386;2023-07-20T08:36:10;7.10;;;1.60;;
5355;SDS011;70449;52.486;13.386;2023-07-20T08:38:37;1.20;;;1.10;;
5355;SDS011;70449;52.486;13.386;2023-07-20T08:41:05;2.17;;;1.30;;
5355;SDS011;70449;52.486;13.386;2023-07-20T08:43:35;2.40;;;1.40;;
5355;SDS011;70449;52.486;13.386;2023-07-20T08:46:12;1.60;;;1.50;;
5355;SDS011;70449;52.486;13.386;2023-07-20T08:48:39;2.60;;;1.10;;
5355;SDS011;70449;52.486;13.386;2023-07-20T08:51:09;6.73;;;1.63;;
5355;SDS011;70449;52.486;13.386;2023-07-20T08:53:38;7.20;;;1.23;;
5355;SDS011;70449;52.486;13.386;2023-07-20T08:56:05;3.80;;;1.43;;
5355;SDS011;70449;52.486;13.386;2023-07-20T08:58:36;1.40;;;1.23;;
5355;SDS011;70449;52.486;13.386;2023-07-20T09:01:03;4.13;;;1.33;;
5355;SDS011;70449;52.486;13.386;2023-07-20T09:03:33;3.27;;;1.30;;
5355;SDS011;70449;52.486;13.386;2023-07-20T09:06:03;2.37;;;1.30;;
5355;SDS011;70449;52.486;13.386;2023-07-20T09:08:30;1.30;;;1.10;;
5355;SDS011;70449;52.486;13.386;2023-07-20T09:10:57;1.93;;;1.10;;
5355;SDS011;70449;52.486;13.386;2023-07-20T09:13:25;2.10;;;1.20;;
5355;SDS011;70449;52.486;13.386;2023-07-20T09:15:56;1.70;;;1.13;;
5355;SDS011;70449;52.486;13.386;2023-07-20T09:18:25;2.33;;;1.40;;
5355;SDS011;70449;52.486;13.386;2023-07-20T09:20:58;1.37;;;1.10;;
5355;SDS011;70449;52.486;13.386;2023-07-20T09:23:31;1.10;;;1.00;;
5355;SDS011;70449;52.486;13.386;2023-07-20T09:26:08;1.30;;;1.20;;
5355;SDS011;70449;52.486;13.386;2023-07-20T09:28:41;1.47;;;1.10;;
5355;SDS011;70449;52.486;13.386;2023-07-20T09:31:15;1.43;;;1.10;;
5355;SDS011;70449;52.486;13.386;2023-07-20T09:33:44;1.10;;;1.00;;
5355;SDS011;70449;52.486;13.386;2023-07-20T09:36:13;3.47;;;1.00;;
5355;SDS011;70449;52.486;13.386;2023-07-20T09:38:41;2.75;;;1.20;;
5355;SDS011;70449;52.486;13.386;2023-07-20T09:41:12;3.33;;;1.37;;
5355;SDS011;70449;52.486;13.386;2023-07-20T09:43:40;1.63;;;1.10;;
5355;SDS011;70449;52.486;13.386;2023-07-20T09:46:08;2.37;;;1.20;;
5355;SDS011;70449;52.486;13.386;2023-07-20T09:48:35;1.17;;;1.07;;
5355;SDS011;70449;52.486;13.386;2023-07-20T09:51:03;2.33;;;1.10;;
5355;SDS011;70449;52.486;13.386;2023-07-20T09:53:32;1.77;;;1.00;;
5355;SDS011;70449;52.486;13.386;2023-07-20T09:56:01;1.13;;;1.00;;
5355;SDS011;70449;52.486;13.386;2023-07-20T09:58:29;1.60;;;1.10;;
5355;SDS011;70449;52.486;13.386;2023-07-20T10:01:00;1.27;;;1.17;;
5355;SDS011;70449;52.486;13.386;2023-07-20T10:03:32;1.30;;;1.20;;
5355;SDS011;70449;52.486;13.386;2023-07-20T10:06:05;1.10;;;1.00;;
5355;SDS011;70449;52.486;13.386;2023-07-20T10:08:37;1.60;;;1.40;;
5355;SDS011;70449;52.486;13.386;2023-07-20T10:11:07;6.10;;;1.33;;
5355;SDS011;70449;52.486;13.386;2023-07-20T10:13:36;4.57;;;1.33;;
5355;SDS011;70449;52.486;13.386;2023-07-20T10:16:06;3.87;;;1.47;;
5355;SDS011;70449;52.486;13.386;2023-07-20T10:18:41;1.83;;;1.50;;
5355;SDS011;70449;52.486;13.386;2023-07-20T10:21:17;2.70;;;1.10;;
5355;SDS011;70449;52.486;13.386;2023-07-20T10:23:49;2.87;;;1.40;;
5355;SDS011;70449;52.486;13.386;2023-07-20T10:26:20;2.00;;;1.40;;
5355;SDS011;70449;52.486;13.386;2023-07-20T10:28:48;1.40;;;1.07;;
5355;SDS011;70449;52.486;13.386;2023-07-20T10:31:16;4.97;;;1.37;;
5355;SDS011;70449;52.486;13.386;2023-07-20T10:33:44;3.80;;;1.47;;
5355;SDS011;70449;52.486;13.386;2023-07-20T10:36:12;2.73;;;1.83;;
5355;SDS011;70449;52.486;13.386;2023-07-20T10:38:42;13.33;;;1.70;;
5355;SDS011;70449;52.486;13.386;2023-07-20T10:41:22;2.60;;;1.20;;
5355;SDS011;70449;52.486;13.386;2023-07-20T10:44:00;2.43;;;1.47;;
5355;SDS011;70449;52.486;13.386;2023-07-20T10:46:34;1.80;;;1.70;;
5355;SDS011;70449;52.486;13.386;2023-07-20T10:49:10;1.80;;;1.40;;
5355;SDS011;70449;52.486;13.386;2023-07-20T10:51:39;4.63;;;1.50;;
5355;SDS011;70449;52.486;13.386;2023-07-20T10:57:24;2.47;;;1.70;;
5355;SDS011;70449;52.486;13.386;2023-07-20T11:00:10;1.50;;;1.40;;
5355;SDS011;70449;52.486;13.386;2023-07-20T11:02:41;2.33;;;1.80;;
5355;SDS011;70449;52.486;13.386;2023-07-20T11:08:00;2.70;;;1.90;;
5355;SDS011;70449;52.486;13.386;2023-07-20T11:10:40;3.37;;;1.70;;
5355;SDS011;70449;52.486;13.386;2023-07-20T11:13:20;6.63;;;1.80;;
5355;SDS011;70449;52.486;13.386;2023-07-20T11:16:02;1.93;;;1.50;;
5355;SDS011;70449;52.486;13.386;2023-07-20T11:18:34;1.57;;;1.47;;
5355;SDS011;70449;52.486;13.386;2023-07-20T11:21:06;2.50;;;1.43;;
5355;SDS011;70449;52.486;13.386;2023-07-20T11:23:37;1.43;;;1.30;;
5355;SDS011;70449;52.486;13.386;2023-07-20T11:26:07;1.40;;;1.10;;
5355;SDS011;70449;52.486;13.386;2023-07-20T11:28:35;2.40;;;1.20;;
5355;SDS011;70449;52.486;13.386;2023-07-20T11:31:02;2.17;;;1.10;;
5355;SDS011;70449;52.486;13.386;2023-07-20T11:33:29;1.20;;;1.03;;
5355;SDS011;70449;52.486;13.386;2023-07-20T11:35:56;2.40;;;1.47;;
5355;SDS011;70449;52.486;13.386;2023-07-20T11:38:24;1.40;;;1.30;;
5355;SDS011;70449;52.486;13.386;2023-07-20T11:40:51;2.33;;;1.30;;
5355;SDS011;70449;52.486;13.386;2023-07-20T11:43:20;3.83;;;1.43;;
5355;SDS011;70449;52.486;13.386;2023-07-20T11:45:51;3.33;;;1.43;;
5355;SDS011;70449;52.486;13.386;2023-07-20T11:48:18;1.27;;;1.17;;
5355;SDS011;70449;52.486;13.386;2023-07-20T11:50:45;1.60;;;1.30;;
5355;SDS011;70449;52.486;13.386;2023-07-20T11:53:13;3.57;;;1.47;;
5355;SDS011;70449;52.486;13.386;2023-07-20T11:55:42;4.70;;;1.83;;
5355;SDS011;70449;52.486;13.386;2023-07-20T11:58:11;3.40;;;1.30;;
5355;SDS011;70449;52.486;13.386;2023-07-20T12:00:44;1.93;;;1.20;;
5355;SDS011;70449;52.486;13.386;2023-07-20T12:03:12;1.80;;;1.20;;
5355;SDS011;70449;52.486;13.386;2023-07-20T12:05:39;4.50;;;1.10;;
5355;SDS011;70449;52.486;13.386;2023-07-20T12:08:06;1.57;;;1.00;;
5355;SDS011;70449;52.486;13.386;2023-07-20T12:10:34;1.60;;;1.10;;
5355;SDS011;70449;52.486;13.386;2023-07-20T12:13:09;1.30;;;1.20;;
5355;SDS011;70449;52.486;13.386;2023-07-20T12:15:37;1.70;;;1.20;;
5355;SDS011;70449;52.486;13.386;2023-07-20T12:18:06;1.37;;;1.17;;
5355;SDS011;70449;52.486;13.386;2023-07-20T12:20:36;2.60;;;1.17;;
5355;SDS011;70449;52.486;13.386;2023-07-20T12:23:08;1.30;;;1.20;;
5355;SDS011;70449;52.486;13.386;2023-07-20T12:25:37;2.60;;;1.27;;
5355;SDS011;70449;52.486;13.386;2023-07-20T12:28:07;2.13;;;1.13;;
5355;SDS011;70449;52.486;13.386;2023-07-20T12:30:36;5.00;;;1.40;;
5355;SDS011;70449;52.486;13.386;2023-07-20T12:33:03;1.67;;;1.30;;
5355;SDS011;70449;52.486;13.386;2023-07-20T12:35:34;1.30;;;0.90;;
5355;SDS011;70449;52.486;13.386;2023-07-20T12:38:01;2.00;;;1.13;;
5355;SDS011;70449;52.486;13.386;2023-07-20T12:40:30;1.23;;;1.13;;
5355;SDS011;70449;52.486;13.386;2023-07-20T12:42:57;11.30;;;1.10;;
5355;SDS011;70449;52.486;13.386;2023-07-20T12:45:24;1.10;;;1.00;;
5355;SDS011;70449;52.486;13.386;2023-07-20T12:47:51;2.07;;;1.20;;
5355;SDS011;70449;52.486;13.386;2023-07-20T12:50:20;1.20;;;1.10;;
5355;SDS011;70449;52.486;13.386;2023-07-20T12:52:47;2.07;;;1.30;;
5355;SDS011;70449;52.486;13.386;2023-07-20T12:55:14;1.27;;;0.90;;
5355;SDS011;70449;52.486;13.386;2023-07-20T12:57:43;2.13;;;0.97;;
5355;SDS011;70449;52.486;13.386;2023-07-20T13:00:13;2.07;;;1.17;;
5355;SDS011;70449;52.486;13.386;2023-07-20T13:02:42;1.10;;;1.00;;
5355;SDS011;70449;52.486;13.386;2023-07-20T13:05:09;2.40;;;2.10;;
5355;SDS011;70449;52.486;13.386;2023-07-20T13:07:38;2.23;;;1.10;;
5355;SDS011;70449;52.486;13.386;2023-07-20T13:10:07;3.63;;;1.13;;
5355;SDS011;70449;52.486;13.386;2023-07-20T13:12:36;1.90;;;1.00;;
5355;SDS011;70449;52.486;13.386;2023-07-20T13:15:08;1.60;;;1.00;;
5355;SDS011;70449;52.486;13.386;2023-07-20T13:17:39;1.77;;;0.90;;
5355;SDS011;70449;52.486;13.386;2023-07-20T13:20:13;4.82;;;1.05;;
5355;SDS011;70449;52.486;13.386;2023-07-20T13:22:42;1.80;;;0.98;;
5355;SDS011;70449;52.486;13.386;2023-07-20T13:25:10;7.05;;;1.05;;
5355;SDS011;70449;52.486;13.386;2023-07-20T13:27:37;1.00;;;0.90;;
5355;SDS011;70449;52.486;13.386;2023-07-20T13:30:05;2.22;;;1.10;;
5355;SDS011;70449;52.486;13.386;2023-07-20T13:32:43;1.00;;;0.90;;
5355;SDS011;70449;52.486;13.386;2023-07-20T13:35:11;1.00;;;0.90;;
5355;SDS011;70449;52.486;13.386;2023-07-20T13:37:38;3.58;;;0.90;;
5355;SDS011;70449;52.486;13.386;2023-07-20T13:40:08;4.25;;;1.35;;
5355;SDS011;70449;52.486;13.386;2023-07-20T13:42:38;2.95;;;1.13;;
5355;SDS011;70449;52.486;13.386;2023-07-20T13:45:06;1.75;;;1.00;;
5355;SDS011;70449;52.486;13.386;2023-07-20T13:47:34;1.92;;;1.00;;
5355;SDS011;70449;52.486;13.386;2023-07-20T13:50:01;2.35;;;1.00;;
5355;SDS011;70449;52.486;13.386;2023-07-20T13:52:29;1.00;;;0.80;;
5355;SDS011;70449;52.486;13.386;2023-07-20T13:54:58;1.08;;;0.98;;
5355;SDS011;70449;52.486;13.386;2023-07-20T13:57:27;1.00;;;0.90;;
5355;SDS011;70449;52.486;13.386;2023-07-20T13:59:54;3.53;;;1.10;;
5355;SDS011;70449;52.486;13.386;2023-07-20T14:02:30;2.72;;;1.00;;
5355;SDS011;70449;52.486;13.386;2023-07-20T14:05:00;1.88;;;0.90;;
5355;SDS011;70449;52.486;13.386;2023-07-20T14:07:49;1.85;;;1.20;;
5355;SDS011;70449;52.486;13.386;2023-07-20T14:10:16;3.88;;;1.20;;
5355;SDS011;70449;52.486;13.386;2023-07-20T14:12:45;1.85;;;1.10;;
5355;SDS011;70449;52.486;13.386;2023-07-20T14:15:12;1.70;;;0.90;;
5355;SDS011;70449;52.486;13.386;2023-07-20T14:17:39;1.70;;;0.90;;
5355;SDS011;70449;52.486;13.386;2023-07-20T14:20:07;1.38;;;1.08;;
5355;SDS011;70449;52.486;13.386;2023-07-20T14:22:35;3.15;;;1.02;;
5355;SDS011;70449;52.486;13.386;2023-07-20T14:25:03;2.25;;;1.00;;
5355;SDS011;70449;52.486;13.386;2023-07-20T14:27:31;1.13;;;1.02;;
5355;SDS011;70449;52.486;13.386;2023-07-20T14:30:00;1.05;;;0.95;;
5355;SDS011;70449;52.486;13.386;2023-07-20T14:32:27;8.07;;;1.00;;
5355;SDS011;70449;52.486;13.386;2023-07-20T14:34:55;4.25;;;0.90;;
5355;SDS011;70449;52.486;13.386;2023-07-20T14:37:22;1.65;;;1.15;;
5355;SDS011;70449;52.486;13.386;2023-07-20T14:39:49;2.30;;;1.33;;
5355;SDS011;70449;52.486;13.386;2023-07-20T14:42:17;1.75;;;1.00;;
5355;SDS011;70449;52.486;13.386;2023-07-20T14:44:45;2.63;;;1.10;;
5355;SDS011;70449;52.486;13.386;2023-07-20T14:47:14;5.50;;;1.15;;
5355;SDS011;70449;52.486;13.386;2023-07-20T14:49:41;1.63;;;1.10;;
5355;SDS011;70449;52.486;13.386;2023-07-20T14:52:09;1.35;;;1.25;;
5355;SDS011;70449;52.486;13.386;2023-07-20T14:54:37;1.77;;;1.15;;
5355;SDS011;70449;52.486;13.386;2023-07-20T14:57:05;4.20;;;1.20;;
5355;SDS011;70449;52.486;13.386;2023-07-20T14:59:39;2.58;;;1.60;;
5355;SDS011;70449;52.486;13.386;2023-07-20T15:02:07;1.50;;;0.93;;
5355;SDS011;70449;52.486;13.386;2023-07-20T15:04:35;1.10;;;1.00;;